createdAt,value
2017-06-12T00:00:33.725Z,91.85
2017-06-12T00:01:33.715Z,91.75
2017-06-12T00:02:33.709Z,91.28
2017-06-12T00:03:33.697Z,90.51
2017-06-12T00:04:34.001Z,89.54
2017-06-12T00:05:33.679Z,90.22
2017-06-12T00:06:33.666Z,90.51
2017-06-12T00:07:33.657Z,90.99
2017-06-12T00:08:33.650Z,92.14
2017-06-12T00:09:33.641Z,92.14
2017-06-12T00:10:33.630Z,92.91
2017-06-12T00:11:33.624Z,93.29
2017-06-12T00:12:33.925Z,93.58
2017-06-12T00:13:33.912Z,93.77
2017-06-12T00:14:33.904Z,94.83
2017-06-12T00:15:33.892Z,94.64
2017-06-12T00:16:33.572Z,95.4
2017-06-12T00:17:33.875Z,95.79
2017-06-12T00:18:33.864Z,96.42
2017-06-12T00:19:33.860Z,96.13
2017-06-12T00:20:33.535Z,96.42
2017-06-12T00:21:33.835Z,96.22
2017-06-12T00:22:33.824Z,96.17
2017-06-12T00:23:33.821Z,96.61
2017-06-12T00:24:33.494Z,96.37
2017-06-12T00:25:33.794Z,96.99
2017-06-12T00:26:33.788Z,97.38
2017-06-12T00:27:33.778Z,97.76
2017-06-12T00:28:33.773Z,97.66
2017-06-12T00:29:33.756Z,97.66
2017-06-12T00:30:33.438Z,97.57
2017-06-12T00:31:33.739Z,97.66
2017-06-12T00:32:33.419Z,97.19
2017-06-12T00:33:33.405Z,96.94
2017-06-12T00:34:33.711Z,96.7
2017-06-12T00:35:33.751Z,94.93
2017-06-12T00:36:33.714Z,93.44
2017-06-12T00:37:33.677Z,92.52
2017-06-12T00:38:33.668Z,90.99
2017-06-12T00:39:33.656Z,90.99
2017-06-12T00:40:33.647Z,92.14
2017-06-12T00:41:33.323Z,91.18
2017-06-12T00:42:33.626Z,92.62
2017-06-12T00:43:33.644Z,91.56
2017-06-12T00:44:33.609Z,90.7
2017-06-12T00:45:33.288Z,90.8
2017-06-12T00:46:33.277Z,90.99
2017-06-12T00:47:33.591Z,90.99
2017-06-12T00:48:33.256Z,92.05
2017-06-12T00:49:33.560Z,92.81
2017-06-12T00:50:33.555Z,92.14
2017-06-12T00:51:33.227Z,91.66
2017-06-12T00:52:33.531Z,91.85
2017-06-12T00:53:33.520Z,93.77
2017-06-12T00:54:33.513Z,93.1
2017-06-12T00:55:33.185Z,92.43
2017-06-12T00:56:33.176Z,92.52
2017-06-12T00:57:33.482Z,93.19
2017-06-12T00:58:33.161Z,92.05
2017-06-12T00:59:33.466Z,90.41
2017-06-12T01:00:33.452Z,90.7
2017-06-12T01:01:33.130Z,88.97
2017-06-12T01:02:33.436Z,89.26
2017-06-12T01:03:33.420Z,89.45
2017-06-12T01:04:33.412Z,90.8
2017-06-12T01:05:33.095Z,89.54
2017-06-12T01:06:33.392Z,89.79
2017-06-12T01:07:33.073Z,89.74
2017-06-12T01:08:33.061Z,89.45
2017-06-12T01:09:33.050Z,89.54
2017-06-12T01:10:33.349Z,89.54
2017-06-12T01:11:33.345Z,91.28
2017-06-12T01:12:33.331Z,90.31
2017-06-12T01:13:33.324Z,90.41
2017-06-12T01:14:33.312Z,90.12
2017-06-12T01:15:32.996Z,90.84
2017-06-12T01:16:32.980Z,90.7
2017-06-12T01:17:33.281Z,92.57
2017-06-12T01:18:33.162Z,91.71
2017-06-12T01:19:32.951Z,92.57
2017-06-12T01:20:33.255Z,92.48
2017-06-12T01:21:32.929Z,92.38
2017-06-12T01:22:32.925Z,93.15
2017-06-12T01:23:33.224Z,93.63
2017-06-12T01:24:33.216Z,95.17
2017-06-12T01:25:33.204Z,93.63
2017-06-12T01:26:32.881Z,93.82
2017-06-12T01:27:32.879Z,95.36
2017-06-12T01:28:33.176Z,94.4
2017-06-12T01:29:32.856Z,94.4
2017-06-12T01:30:32.839Z,94.78
2017-06-12T01:31:33.144Z,95.07
2017-06-12T01:32:33.137Z,95.36
2017-06-12T01:33:33.122Z,94.88
2017-06-12T01:34:32.801Z,94.11
2017-06-12T01:35:32.792Z,93.34
2017-06-12T01:36:33.095Z,92.77
2017-06-12T01:37:33.088Z,93.63
2017-06-12T01:38:32.762Z,94.59
2017-06-12T01:39:33.063Z,93.15
2017-06-12T01:40:32.742Z,92.77
2017-06-12T01:41:33.067Z,93.34
2017-06-12T01:42:32.725Z,92.48
2017-06-12T01:43:33.026Z,92
2017-06-12T01:44:32.703Z,92.1
2017-06-12T01:45:32.696Z,92.48
2017-06-12T01:46:32.994Z,91.23
2017-06-12T01:47:32.672Z,91.61
2017-06-12T01:48:32.979Z,91.81
2017-06-12T01:49:32.649Z,91.71
2017-06-12T01:50:32.959Z,92.1
2017-06-12T01:51:32.943Z,92.1
2017-06-12T01:52:32.937Z,92.1
2017-06-12T01:53:32.611Z,93.73
2017-06-12T01:54:32.914Z,92.67
2017-06-12T01:55:32.905Z,91.04
2017-06-12T01:56:32.894Z,91.9
2017-06-12T01:57:32.885Z,91.9
2017-06-12T01:58:32.564Z,92.19
2017-06-12T01:59:32.867Z,91.71
2017-06-12T02:00:32.852Z,91.04
2017-06-12T02:01:32.845Z,91.71
2017-06-12T02:02:32.836Z,89.6
2017-06-12T02:03:32.615Z,89.98
2017-06-12T02:04:32.830Z,91.61
2017-06-12T02:05:32.805Z,90.37
2017-06-12T02:06:32.792Z,88.83
2017-06-12T02:07:32.785Z,89.4
2017-06-12T02:08:32.774Z,89.22
2017-06-12T02:09:32.768Z,88.25
2017-06-12T02:10:32.751Z,88.73
2017-06-12T02:11:32.745Z,90.17
2017-06-12T02:12:32.420Z,91.09
2017-06-12T02:13:32.408Z,90.03
2017-06-12T02:14:32.401Z,88.88
2017-06-12T02:15:32.392Z,88.11
2017-06-12T02:16:32.693Z,88.31
2017-06-12T02:17:32.371Z,88.59
2017-06-12T02:18:32.673Z,88.59
2017-06-12T02:19:32.350Z,89.26
2017-06-12T02:20:32.653Z,90.52
2017-06-12T02:21:32.647Z,90.32
2017-06-12T02:22:32.634Z,90.32
2017-06-12T02:23:32.624Z,90.7
2017-06-12T02:24:32.298Z,91.96
2017-06-12T02:25:32.603Z,91.76
2017-06-12T02:26:32.595Z,91.19
2017-06-12T02:27:32.491Z,92.43
2017-06-12T02:28:32.261Z,92.05
2017-06-12T02:29:32.248Z,92.43
2017-06-12T02:30:32.240Z,91.96
2017-06-12T02:31:32.235Z,91.66
2017-06-12T02:32:32.533Z,91.86
2017-06-12T02:33:32.211Z,92.82
2017-06-12T02:34:32.215Z,93.01
2017-06-12T02:35:32.189Z,92.53
2017-06-12T02:36:32.491Z,91.96
2017-06-12T02:37:32.244Z,89.26
2017-06-12T02:38:32.470Z,89.12
2017-06-12T02:39:32.146Z,90.22
2017-06-12T02:40:32.450Z,88.4
2017-06-12T02:41:32.437Z,88.74
2017-06-12T02:42:32.430Z,88.93
2017-06-12T02:43:32.108Z,88.26
2017-06-12T02:44:32.410Z,87.78
2017-06-12T02:45:32.400Z,88.26
2017-06-12T02:46:32.386Z,88.84
2017-06-12T02:47:32.378Z,88.26
2017-06-12T02:48:32.368Z,88.07
2017-06-12T02:49:32.044Z,87.78
2017-06-12T02:50:32.035Z,88.65
2017-06-12T02:51:32.025Z,86.34
2017-06-12T02:52:32.329Z,87.78
2017-06-12T02:53:32.320Z,86.54
2017-06-12T02:54:31.994Z,86.78
2017-06-12T02:55:32.294Z,87.21
2017-06-12T02:56:32.282Z,86.63
2017-06-12T02:57:31.960Z,86.21
2017-06-12T02:58:31.955Z,85.72
2017-06-12T02:59:32.256Z,85.82
2017-06-12T03:00:32.242Z,85.63
2017-06-12T03:01:32.231Z,86.11
2017-06-12T03:02:32.224Z,85.25
2017-06-12T03:03:31.902Z,84.38
2017-06-12T03:04:31.886Z,85.15
2017-06-12T03:05:32.190Z,85.25
2017-06-12T03:06:32.181Z,85.44
2017-06-12T03:07:31.856Z,85.92
2017-06-12T03:08:31.848Z,85.63
2017-06-12T03:09:31.838Z,85.44
2017-06-12T03:10:31.822Z,85.53
2017-06-12T03:11:31.819Z,85.25
2017-06-12T03:12:32.116Z,86.68
2017-06-12T03:13:32.106Z,86.78
2017-06-12T03:14:32.094Z,87.07
2017-06-12T03:15:31.774Z,87.88
2017-06-12T03:16:32.078Z,88.65
2017-06-12T03:17:31.750Z,90
2017-06-12T03:18:32.255Z,87.7
2017-06-12T03:19:32.039Z,87.31
2017-06-12T03:20:32.030Z,87.79
2017-06-12T03:21:32.025Z,88.56
2017-06-12T03:22:32.007Z,87.98
2017-06-12T03:23:31.999Z,88.94
2017-06-12T03:24:31.985Z,90.86
2017-06-12T03:25:31.979Z,90.38
2017-06-12T03:26:31.651Z,90.19
2017-06-12T03:27:31.955Z,90.09
2017-06-12T03:28:31.633Z,90.95
2017-06-12T03:29:31.931Z,91.14
2017-06-12T03:30:31.923Z,91.82
2017-06-12T03:31:31.910Z,92.25
2017-06-12T03:32:31.901Z,91.67
2017-06-12T03:33:31.575Z,92.68
2017-06-12T03:34:31.878Z,92.25
2017-06-12T03:35:31.868Z,91.77
2017-06-12T03:36:31.539Z,92.73
2017-06-12T03:37:31.849Z,92.63
2017-06-12T03:38:31.520Z,93.4
2017-06-12T03:39:31.508Z,92.73
2017-06-12T03:40:31.814Z,93.69
2017-06-12T03:41:31.488Z,93.3
2017-06-12T03:42:31.788Z,93.4
2017-06-12T03:43:31.781Z,93.4
2017-06-12T03:44:31.768Z,93.21
2017-06-12T03:45:31.441Z,93.59
2017-06-12T03:46:31.433Z,94.26
2017-06-12T03:47:31.735Z,94.93
2017-06-12T03:48:31.721Z,94.93
2017-06-12T03:49:31.397Z,95.98
2017-06-12T03:50:31.387Z,96.08
2017-06-12T03:51:31.687Z,98.1
2017-06-12T03:52:31.676Z,98.47
2017-06-12T03:53:31.672Z,97.71
2017-06-12T03:54:31.344Z,97.52
2017-06-12T03:55:31.644Z,98.47
2017-06-12T03:56:31.631Z,98.96
2017-06-12T03:57:31.618Z,99.53
2017-06-12T03:58:31.612Z,99.91
2017-06-12T03:59:31.284Z,99.99
2017-06-12T04:00:31.587Z,99.99
2017-06-12T04:01:31.261Z,99.99
2017-06-12T04:02:31.568Z,99.99
2017-06-12T04:03:31.238Z,99.99
2017-06-12T04:04:31.230Z,99.99
2017-06-12T04:05:31.215Z,99.99
2017-06-12T04:06:31.520Z,99.99
2017-06-12T04:07:31.194Z,99.99
2017-06-12T04:08:31.183Z,99.99
2017-06-12T04:09:31.485Z,99.99
2017-06-12T04:10:31.471Z,99.99
2017-06-12T04:11:31.146Z,99.99
2017-06-12T04:12:31.134Z,99.99
2017-06-12T04:13:31.437Z,99.99
2017-06-12T04:14:31.427Z,99.99
2017-06-12T04:15:31.414Z,99.99
2017-06-12T04:16:31.092Z,99.99
2017-06-12T04:17:31.390Z,99.99
2017-06-12T04:18:31.070Z,99.99
2017-06-12T04:19:31.374Z,99.99
2017-06-12T04:20:31.359Z,99.99
2017-06-12T04:21:31.034Z,99.99
2017-06-12T04:22:31.337Z,99.99
2017-06-12T04:23:31.325Z,99.99
2017-06-12T04:24:31.309Z,99.99
2017-06-12T04:25:31.302Z,99.99
2017-06-12T04:26:31.289Z,99.99
2017-06-12T04:27:30.970Z,99.99
2017-06-12T04:28:31.267Z,99.99
2017-06-12T04:29:31.254Z,99.99
2017-06-12T04:30:30.932Z,99.99
2017-06-12T04:31:31.235Z,99.99
2017-06-12T04:32:31.220Z,99.99
2017-06-12T04:33:30.895Z,99.99
2017-06-12T04:34:30.884Z,99.99
2017-06-12T04:35:30.873Z,99.99
2017-06-12T04:36:31.174Z,99.99
2017-06-12T04:37:31.165Z,99.99
2017-06-12T04:38:31.147Z,99.99
2017-06-12T04:39:31.140Z,99.99
2017-06-12T04:40:31.126Z,99.99
2017-06-12T04:41:31.120Z,99.99
2017-06-12T04:42:31.106Z,99.99
2017-06-12T04:43:31.093Z,99.99
2017-06-12T04:44:30.770Z,99.99
2017-06-12T04:45:30.759Z,99.99
2017-06-12T04:46:31.060Z,99.99
2017-06-12T04:47:31.048Z,99.99
2017-06-12T04:48:30.726Z,99.99
2017-06-12T04:49:31.023Z,99.99
2017-06-12T04:50:30.701Z,99.99
2017-06-12T04:51:30.693Z,99.99
2017-06-12T04:52:30.994Z,99.99
2017-06-12T04:53:30.977Z,99.99
2017-06-12T04:54:30.655Z,99.99
2017-06-12T04:55:30.959Z,99.99
2017-06-12T04:56:30.636Z,99.99
2017-06-12T04:57:30.623Z,99.99
2017-06-12T04:58:30.925Z,99.99
2017-06-12T04:59:30.913Z,99.99
2017-06-12T05:00:30.901Z,99.99
2017-06-12T05:01:30.888Z,99.99
2017-06-12T05:02:30.880Z,99.99
2017-06-12T05:03:30.558Z,99.99
2017-06-12T05:04:30.857Z,99.99
2017-06-12T05:05:30.844Z,99.99
2017-06-12T05:06:30.837Z,99.99
2017-06-12T05:07:30.823Z,99.99
2017-06-12T05:08:30.816Z,99.99
2017-06-12T05:09:30.798Z,99.99
2017-06-12T05:10:30.477Z,99.99
2017-06-12T05:11:30.774Z,99.99
2017-06-12T05:12:30.772Z,99.99
2017-06-12T05:13:30.758Z,99.99
2017-06-12T05:14:30.746Z,99.99
2017-06-12T05:15:30.418Z,99.99
2017-06-12T05:16:30.721Z,99.99
2017-06-12T05:17:30.396Z,99.99
2017-06-12T05:18:30.904Z,99.99
2017-06-12T05:19:30.375Z,99.99
2017-06-12T05:20:30.365Z,99.99
2017-06-12T05:21:30.354Z,99.99
2017-06-12T05:22:30.658Z,99.99
2017-06-12T05:23:30.334Z,99.99
2017-06-12T05:24:30.322Z,99.99
2017-06-12T05:25:30.623Z,99.99
2017-06-12T05:26:30.611Z,99.99
2017-06-12T05:27:30.288Z,99.99
2017-06-12T05:28:30.280Z,99.99
2017-06-12T05:29:30.264Z,99.99
2017-06-12T05:30:30.567Z,99.99
2017-06-12T05:31:30.557Z,99.99
2017-06-12T05:32:30.549Z,99.99
2017-06-12T05:33:30.219Z,99.99
2017-06-12T05:34:30.524Z,99.99
2017-06-12T05:35:30.680Z,99.99
2017-06-12T05:36:30.513Z,99.99
2017-06-12T05:37:30.491Z,99.99
2017-06-12T05:38:30.481Z,99.99
2017-06-12T05:39:30.162Z,99.99
2017-06-12T05:40:30.146Z,99.99
2017-06-12T05:41:30.447Z,99.99
2017-06-12T05:42:30.445Z,99.99
2017-06-12T05:43:30.428Z,99.99
2017-06-12T05:44:30.414Z,99.99
2017-06-12T05:45:30.094Z,99.99
2017-06-12T05:46:30.083Z,99.99
2017-06-12T05:47:30.074Z,99.99
2017-06-12T05:48:30.371Z,99.99
2017-06-12T05:49:30.363Z,99.99
2017-06-12T05:50:30.349Z,99.99
2017-06-12T05:51:30.342Z,99.99
2017-06-12T05:52:30.328Z,99.99
2017-06-12T05:53:30.008Z,99.99
2017-06-12T05:54:30.310Z,99.99
2017-06-12T05:55:30.303Z,99.99
2017-06-12T05:56:30.285Z,99.99
2017-06-12T05:57:30.344Z,99.99
2017-06-12T05:58:30.268Z,99.99
2017-06-12T05:59:30.257Z,99.99
2017-06-12T06:00:30.248Z,99.99
2017-06-12T06:01:29.919Z,99.99
2017-06-12T06:02:29.910Z,99.99
2017-06-12T06:03:30.213Z,99.99
2017-06-12T06:04:30.202Z,99.99
2017-06-12T06:05:30.190Z,99.99
2017-06-12T06:06:29.889Z,99.99
2017-06-12T06:07:30.171Z,99.99
2017-06-12T06:08:30.166Z,99.99
2017-06-12T06:09:30.150Z,99.99
2017-06-12T06:10:30.138Z,99.99
2017-06-12T06:11:30.161Z,99.99
2017-06-12T06:12:30.118Z,99.99
2017-06-12T06:13:30.106Z,99.99
2017-06-12T06:14:30.106Z,99.99
2017-06-12T06:15:30.091Z,99.99
2017-06-12T06:16:29.781Z,99.99
2017-06-12T06:17:29.752Z,99.99
2017-06-12T06:18:29.740Z,99.99
2017-06-12T06:19:30.043Z,99.99
2017-06-12T06:20:30.036Z,99.99
2017-06-12T06:21:30.034Z,99.99
2017-06-12T06:22:30.016Z,99.99
2017-06-12T06:23:29.691Z,99.99
2017-06-12T06:24:29.676Z,99.99
2017-06-12T06:25:29.983Z,99.99
2017-06-12T06:26:29.661Z,99.99
2017-06-12T06:27:29.646Z,99.99
2017-06-12T06:28:29.950Z,99.99
2017-06-12T06:29:29.943Z,99.99
2017-06-12T06:30:29.935Z,99.99
2017-06-12T06:31:29.937Z,99.99
2017-06-12T06:32:29.920Z,99.99
2017-06-12T06:33:29.586Z,99.99
2017-06-12T06:34:29.578Z,99.99
2017-06-12T06:35:29.882Z,99.99
2017-06-12T06:36:29.554Z,99.99
2017-06-12T06:37:29.868Z,99.99
2017-06-12T06:38:29.850Z,99.99
2017-06-12T06:39:29.520Z,99.99
2017-06-12T06:40:29.514Z,99.99
2017-06-12T06:41:29.504Z,99.99
2017-06-12T06:42:29.495Z,99.99
2017-06-12T06:43:29.794Z,99.99
2017-06-12T06:44:29.472Z,99.99
2017-06-12T06:45:29.776Z,99.99
2017-06-12T06:46:29.764Z,99.99
2017-06-12T06:47:29.759Z,99.99
2017-06-12T06:48:29.744Z,99.99
2017-06-12T06:49:29.420Z,99.99
2017-06-12T06:50:29.725Z,99.99
2017-06-12T06:51:29.713Z,99.99
2017-06-12T06:52:29.391Z,99.99
2017-06-12T06:53:29.375Z,99.99
2017-06-12T06:54:29.680Z,99.99
2017-06-12T06:55:29.677Z,99.99
2017-06-12T06:56:29.365Z,99.99
2017-06-12T06:57:29.649Z,99.99
2017-06-12T06:58:29.326Z,99.99
2017-06-12T06:59:29.318Z,99.99
2017-06-12T07:00:29.330Z,99.99
2017-06-12T07:01:29.299Z,99.99
2017-06-12T07:02:29.603Z,99.99
2017-06-12T07:03:29.277Z,99.99
2017-06-12T07:04:29.269Z,99.99
2017-06-12T07:05:29.258Z,99.99
2017-06-12T07:06:29.560Z,99.99
2017-06-12T07:07:29.242Z,99.99
2017-06-12T07:08:29.543Z,99.99
2017-06-12T07:09:29.219Z,99.99
2017-06-12T07:10:29.549Z,99.54
2017-06-12T07:11:29.202Z,92.91
2017-06-12T07:12:29.188Z,90.78
2017-06-12T07:13:29.496Z,91.6
2017-06-12T07:14:29.173Z,95.17
2017-06-12T07:15:29.181Z,98.19
2017-06-12T07:16:29.473Z,99.99
2017-06-12T07:17:29.167Z,99.99
2017-06-12T07:18:29.857Z,99.99
2017-06-12T07:19:29.144Z,99.99
2017-06-12T07:20:29.117Z,98.48
2017-06-12T07:21:29.431Z,99.99
2017-06-12T07:22:29.119Z,99.99
2017-06-12T07:23:29.407Z,99.99
2017-06-12T07:24:29.409Z,99.99
2017-06-12T07:25:29.405Z,99.99
2017-06-12T07:26:29.401Z,99.99
2017-06-12T07:27:29.406Z,99.99
2017-06-12T07:28:29.374Z,99.99
2017-06-12T07:29:29.365Z,99.99
2017-06-12T07:30:29.031Z,99.99
2017-06-12T07:31:29.032Z,99.99
2017-06-12T07:32:29.007Z,99.99
2017-06-12T07:33:29.315Z,99.99
2017-06-12T07:34:29.303Z,99.99
2017-06-12T07:35:29.296Z,99.99
2017-06-12T07:36:28.977Z,99.99
2017-06-12T07:37:29.278Z,99.99
2017-06-12T07:38:28.953Z,99.99
2017-06-12T07:39:29.263Z,99.99
2017-06-12T07:40:28.938Z,99.99
2017-06-12T07:41:28.930Z,99.99
2017-06-12T07:42:29.282Z,99.99
2017-06-12T07:43:29.230Z,99.99
2017-06-12T07:44:29.217Z,99.99
2017-06-12T07:45:29.211Z,99.99
2017-06-12T07:46:28.891Z,99.99
2017-06-12T07:47:28.891Z,99.99
2017-06-12T07:48:29.221Z,99.99
2017-06-12T07:49:29.180Z,99.99
2017-06-12T07:50:29.172Z,99.99
2017-06-12T07:51:29.161Z,93.38
2017-06-12T07:52:28.841Z,87.65
2017-06-12T07:53:29.148Z,85.96
2017-06-12T07:54:29.144Z,87.3
2017-06-12T07:55:29.132Z,88.9
2017-06-12T07:56:29.126Z,90.26
2017-06-12T07:57:29.123Z,92.23
2017-06-12T07:58:29.116Z,89.25
2017-06-12T07:59:28.794Z,85.97
2017-06-12T08:00:28.790Z,82.49
2017-06-12T08:01:29.109Z,79.77
2017-06-12T08:02:29.091Z,79.14
2017-06-12T08:03:28.778Z,76.76
2017-06-12T08:04:28.769Z,75.26
2017-06-12T08:05:28.758Z,75.45
2017-06-12T08:06:29.074Z,77.25
2017-06-12T08:07:29.073Z,76.37
2017-06-12T08:08:29.088Z,75.74
2017-06-12T08:09:29.070Z,76.61
2017-06-12T08:10:29.050Z,76.47
2017-06-12T08:11:28.731Z,76.3
2017-06-12T08:12:28.733Z,76.88
2017-06-12T08:13:29.049Z,78.48
2017-06-12T08:14:28.718Z,80.66
2017-06-12T08:15:29.024Z,80.85
2017-06-12T08:16:28.713Z,81.81
2017-06-12T08:17:29.014Z,82.59
2017-06-12T08:18:29.013Z,78.58
2017-06-12T08:19:29.011Z,77.55
2017-06-12T08:20:28.698Z,79.64
2017-06-12T08:21:28.997Z,82.97
2017-06-12T08:22:28.681Z,83.47
2017-06-12T08:23:28.987Z,84.87
2017-06-12T08:24:28.989Z,86.85
2017-06-12T08:25:28.662Z,85.25
2017-06-12T08:26:28.976Z,86.02
2017-06-12T08:27:28.967Z,87.27
2017-06-12T08:28:28.960Z,88.39
2017-06-12T08:29:28.957Z,88.82
2017-06-12T08:30:28.950Z,87.71
2017-06-12T08:31:28.943Z,85.88
2017-06-12T08:32:28.626Z,82.16
2017-06-12T08:33:28.936Z,78.48
2017-06-12T08:34:28.617Z,76.53
2017-06-12T08:35:28.932Z,71.74
2017-06-12T08:36:28.917Z,71.68
2017-06-12T08:37:28.618Z,70.36
2017-06-12T08:38:28.918Z,68.75
2017-06-12T08:39:28.906Z,68.52
2017-06-12T08:40:28.588Z,68.4
2017-06-12T08:41:28.588Z,67.56
2017-06-12T08:42:28.894Z,69.07
2017-06-12T08:43:28.581Z,70.81
2017-06-12T08:44:28.887Z,71.33
2017-06-12T08:45:28.909Z,74.06
2017-06-12T08:46:28.571Z,73.15
2017-06-12T08:47:28.880Z,74.72
2017-06-12T08:48:28.871Z,75.84
2017-06-12T08:49:28.875Z,72.21
2017-06-12T08:50:28.553Z,71.42
2017-06-12T08:51:28.868Z,72.54
2017-06-12T08:52:28.547Z,73.85
2017-06-12T08:53:28.861Z,75.84
2017-06-12T08:54:28.853Z,77.19
2017-06-12T08:55:28.533Z,76.48
2017-06-12T08:56:28.844Z,77.21
2017-06-12T08:57:28.838Z,76.31
2017-06-12T08:58:28.515Z,75.44
2017-06-12T08:59:28.514Z,76.01
2017-06-12T09:00:28.818Z,76.01
2017-06-12T09:01:28.501Z,77.75
2017-06-12T09:02:28.827Z,78.28
2017-06-12T09:03:28.808Z,78.28
2017-06-12T09:04:28.486Z,75.92
2017-06-12T09:05:28.795Z,75.63
2017-06-12T09:06:28.483Z,75.19
2017-06-12T09:07:28.780Z,74.51
2017-06-12T09:08:28.467Z,75.19
2017-06-12T09:09:28.770Z,76.44
2017-06-12T09:10:28.767Z,77.08
2017-06-12T09:11:28.453Z,78.33
2017-06-12T09:12:28.758Z,79.48
2017-06-12T09:13:28.436Z,79.1
2017-06-12T09:14:28.441Z,79.19
2017-06-12T09:15:28.429Z,79.77
2017-06-12T09:16:28.813Z,80.44
2017-06-12T09:17:28.414Z,79.63
2017-06-12T09:18:28.720Z,79.82
2017-06-12T09:19:28.717Z,79.25
2017-06-12T09:20:28.402Z,79.73
2017-06-12T09:21:28.700Z,79.3
2017-06-12T09:22:28.384Z,80.6
2017-06-12T09:23:28.693Z,81.75
2017-06-12T09:24:28.684Z,81.84
2017-06-12T09:25:28.677Z,82.09
2017-06-12T09:26:28.670Z,79.44
2017-06-12T09:27:28.666Z,77.84
2017-06-12T09:28:28.660Z,74.97
2017-06-12T09:29:28.343Z,71.73
2017-06-12T09:30:28.377Z,69.87
2017-06-12T09:31:28.641Z,69.2
2017-06-12T09:32:28.335Z,69.68
2017-06-12T09:33:28.323Z,71.7
2017-06-12T09:34:28.626Z,72.02
2017-06-12T09:35:28.645Z,73.33
2017-06-12T09:36:28.321Z,74.78
2017-06-12T09:37:28.615Z,75.71
2017-06-12T09:38:28.610Z,76.53
2017-06-12T09:39:28.290Z,77.21
2017-06-12T09:40:28.607Z,76.98
2017-06-12T09:41:28.595Z,78.23
2017-06-12T09:42:28.299Z,76.31
2017-06-12T09:43:28.267Z,76.18
2017-06-12T09:44:28.588Z,73.05
2017-06-12T09:45:28.571Z,70.28
2017-06-12T09:46:28.773Z,69.84
2017-06-12T09:47:28.252Z,69.74
2017-06-12T09:48:28.563Z,69.68
2017-06-12T09:49:28.555Z,66.63
2017-06-12T09:50:28.559Z,66.66
2017-06-12T09:51:28.551Z,66.46
2017-06-12T09:52:28.556Z,65.63
2017-06-12T09:53:28.234Z,63.73
2017-06-12T09:54:28.545Z,65.47
2017-06-12T09:55:28.542Z,63.82
2017-06-12T09:56:28.542Z,62.79
2017-06-12T09:57:28.223Z,62.82
2017-06-12T09:58:28.226Z,62.14
2017-06-12T09:59:28.227Z,61.95
2017-06-12T10:00:28.220Z,60.98
2017-06-12T10:01:28.532Z,61.92
2017-06-12T10:02:28.224Z,63.53
2017-06-12T10:03:28.219Z,63.85
2017-06-12T10:04:28.219Z,61.05
2017-06-12T10:05:28.530Z,62.5
2017-06-12T10:06:28.536Z,61.46
2017-06-12T10:07:28.530Z,62.04
2017-06-12T10:08:28.542Z,61.05
2017-06-12T10:09:28.226Z,63.56
2017-06-12T10:10:28.534Z,65.24
2017-06-12T10:11:28.215Z,66.46
2017-06-12T10:12:28.219Z,66.33
2017-06-12T10:13:28.265Z,65.56
2017-06-12T10:14:28.525Z,65.53
2017-06-12T10:15:28.214Z,66.36
2017-06-12T10:16:28.210Z,67.4
2017-06-12T10:17:28.207Z,66.33
2017-06-12T10:18:28.521Z,67.49
2017-06-12T10:19:28.205Z,69.67
2017-06-12T10:20:28.519Z,69.29
2017-06-12T10:21:28.204Z,69.48
2017-06-12T10:22:28.507Z,69.73
2017-06-12T10:23:28.508Z,70.21
2017-06-12T10:24:28.502Z,71.85
2017-06-12T10:25:28.187Z,70.21
2017-06-12T10:26:28.178Z,69.83
2017-06-12T10:27:28.486Z,69.93
2017-06-12T10:28:28.171Z,71.08
2017-06-12T10:29:28.479Z,71.66
2017-06-12T10:30:28.160Z,71.76
2017-06-12T10:31:28.160Z,71.18
2017-06-12T10:32:28.153Z,69.87
2017-06-12T10:33:28.460Z,69.61
2017-06-12T10:34:28.461Z,71.34
2017-06-12T10:35:28.464Z,70.09
2017-06-12T10:36:28.454Z,70.06
2017-06-12T10:37:28.443Z,70.44
2017-06-12T10:38:28.444Z,70.31
2017-06-12T10:39:28.124Z,70.6
2017-06-12T10:40:28.117Z,70.28
2017-06-12T10:41:28.422Z,71.62
2017-06-12T10:42:28.423Z,71.59
2017-06-12T10:43:28.415Z,71.78
2017-06-12T10:44:28.408Z,73.51
2017-06-12T10:45:28.091Z,73.03
2017-06-12T10:46:28.089Z,74.48
2017-06-12T10:47:28.395Z,74.57
2017-06-12T10:48:28.386Z,74.67
2017-06-12T10:49:28.383Z,75.98
2017-06-12T10:50:28.378Z,75.88
2017-06-12T10:51:28.373Z,76.36
2017-06-12T10:52:28.051Z,77.33
2017-06-12T10:53:28.049Z,77.71
2017-06-12T10:54:28.351Z,77.13
2017-06-12T10:55:28.059Z,77.61
2017-06-12T10:56:28.025Z,76.56
2017-06-12T10:57:28.329Z,76.26
2017-06-12T10:58:28.013Z,74.82
2017-06-12T10:59:28.318Z,75.69
2017-06-12T11:00:28.312Z,76.46
2017-06-12T11:01:28.306Z,75.84
2017-06-12T11:02:28.299Z,76.32
2017-06-12T11:03:28.291Z,77
2017-06-12T11:04:28.024Z,77.96
2017-06-12T11:05:28.277Z,77.48
2017-06-12T11:06:27.961Z,78.25
2017-06-12T11:07:28.260Z,78.25
2017-06-12T11:08:28.256Z,78.5
2017-06-12T11:09:27.983Z,78.53
2017-06-12T11:10:28.243Z,79.3
2017-06-12T11:11:27.920Z,78.83
2017-06-12T11:12:27.912Z,79.5
2017-06-12T11:13:28.217Z,79.4
2017-06-12T11:14:27.895Z,79.4
2017-06-12T11:15:28.205Z,79.69
2017-06-12T11:16:28.195Z,80.27
2017-06-12T11:17:27.874Z,79.88
2017-06-12T11:18:27.866Z,79.11
2017-06-12T11:19:28.376Z,79.11
2017-06-12T11:20:27.851Z,80.07
2017-06-12T11:21:27.844Z,80.46
2017-06-12T11:22:28.149Z,81.04
2017-06-12T11:23:27.828Z,81.52
2017-06-12T11:24:28.132Z,82.19
2017-06-12T11:25:27.811Z,82.19
2017-06-12T11:26:27.804Z,82.19
2017-06-12T11:27:28.104Z,81.71
2017-06-12T11:28:28.098Z,81.17
2017-06-12T11:29:28.117Z,81.17
2017-06-12T11:30:28.083Z,81.75
2017-06-12T11:31:28.076Z,82.81
2017-06-12T11:32:28.069Z,80.69
2017-06-12T11:33:27.747Z,80.3
2017-06-12T11:34:27.736Z,79.35
2017-06-12T11:35:28.051Z,79.25
2017-06-12T11:36:28.035Z,79.15
2017-06-12T11:37:27.713Z,78.09
2017-06-12T11:38:28.021Z,79.69
2017-06-12T11:39:27.696Z,79.98
2017-06-12T11:40:28.003Z,80.17
2017-06-12T11:41:27.685Z,81.04
2017-06-12T11:42:27.676Z,80.27
2017-06-12T11:43:27.978Z,80.75
2017-06-12T11:44:27.970Z,80.46
2017-06-12T11:45:27.653Z,81.32
2017-06-12T11:46:27.645Z,80.65
2017-06-12T11:47:27.948Z,79.73
2017-06-12T11:48:27.944Z,79.53
2017-06-12T11:49:27.937Z,78.38
2017-06-12T11:50:27.611Z,78.61
2017-06-12T11:51:27.607Z,78.13
2017-06-12T11:52:27.910Z,77.46
2017-06-12T11:53:27.903Z,77.75
2017-06-12T11:54:27.898Z,79.28
2017-06-12T11:55:27.581Z,79.28
2017-06-12T11:56:27.880Z,77.08
2017-06-12T11:57:27.562Z,77.08
2017-06-12T11:58:27.869Z,77.61
2017-06-12T11:59:27.549Z,78.48
2017-06-12T12:00:27.854Z,77.61
2017-06-12T12:01:27.846Z,78.96
2017-06-12T12:02:27.525Z,78.86
2017-06-12T12:03:27.830Z,78.73
2017-06-12T12:04:27.821Z,79.3
2017-06-12T12:05:27.500Z,80.36
2017-06-12T12:06:27.808Z,80.46
2017-06-12T12:07:27.486Z,81.71
2017-06-12T12:08:27.795Z,81.48
2017-06-12T12:09:27.782Z,80.65
2017-06-12T12:10:27.779Z,81.71
2017-06-12T12:11:27.771Z,80.17
2017-06-12T12:12:27.446Z,81.32
2017-06-12T12:13:27.753Z,80.55
2017-06-12T12:14:27.434Z,81.23
2017-06-12T12:15:27.736Z,80.6
2017-06-12T12:16:27.413Z,81.65
2017-06-12T12:17:27.410Z,80.98
2017-06-12T12:18:27.404Z,80.73
2017-06-12T12:19:27.395Z,78.03
2017-06-12T12:20:27.387Z,75.82
2017-06-12T12:21:27.378Z,74.86
2017-06-12T12:22:27.682Z,77.56
2017-06-12T12:23:27.365Z,77.46
2017-06-12T12:24:27.359Z,77.65
2017-06-12T12:25:27.661Z,76.4
2017-06-12T12:26:27.656Z,77.17
2017-06-12T12:27:27.647Z,77.36
2017-06-12T12:28:27.645Z,77.65
2017-06-12T12:29:27.659Z,77.9
2017-06-12T12:30:27.366Z,77.71
2017-06-12T12:31:27.619Z,78.19
2017-06-12T12:32:27.611Z,80.11
2017-06-12T12:33:27.293Z,80.4
2017-06-12T12:34:27.594Z,79.73
2017-06-12T12:35:27.586Z,80.3
2017-06-12T12:36:27.791Z,78.28
2017-06-12T12:37:27.262Z,78.19
2017-06-12T12:38:27.569Z,77.9
2017-06-12T12:39:27.564Z,78.67
2017-06-12T12:40:27.554Z,78.58
2017-06-12T12:41:27.233Z,79.15
2017-06-12T12:42:27.536Z,79.53
2017-06-12T12:43:27.218Z,78.38
2017-06-12T12:44:27.520Z,81.75
2017-06-12T12:45:27.256Z,79.05
2017-06-12T12:46:27.514Z,79.82
2017-06-12T12:47:27.501Z,80.27
2017-06-12T12:48:27.494Z,78.86
2017-06-12T12:49:27.488Z,79.15
2017-06-12T12:50:27.481Z,79.05
2017-06-12T12:51:27.469Z,79.44
2017-06-12T12:52:27.148Z,78.86
2017-06-12T12:53:27.144Z,78.28
2017-06-12T12:54:27.451Z,77.94